Belize - Landivar, Belize

11:17 PM CST on July 25, 2016 (GMT -0600)
Philip S W Goldson International | | Change Station

Elev 16 ft 17.54 °N, 88.31 °W | Updated 2 hours ago

Partly Cloudy
Partly Cloudy
84 °F
Feels Like 96 °F
N
9
Wind Variable Wind from East

Today
High -- | Low -- °F
--% Chance of Precip.
Yesterday
High -- | Low -- °F
Precip. -- in
Pressure 29.95 in
Visibility 6.2 miles
Clouds Few 1700 ft
Heat Index 96 °F
Dew Point 79 °F
Humidity 84%
Rainfall 0.00 in
Snow Depth Not available.
5:29 AM 6:28 PM
Waning Gibbous, 58% visible
METAR MZBZ 260300Z 08008KT 9999 FEW017 29/26 A2995 Q1014 NOSIG
Pressure 29.95 in
Visibility 6.2 miles
Clouds Few 1700 ft
Heat Index 96 °F
Dew Point 79 °F
Humidity 84%
Rainfall 0.00 in
Snow Depth Not available.
5:29 AM 6:28 PM
Waning Gibbous, 58% visible
METAR MZBZ 260300Z 08008KT 9999 FEW017 29/26 A2995 Q1014 NOSIG

10-Day Weather Forecast

No radar image for this location.
×

Almanac

Astronomy

Jul. 25, 2016 Rise Set
Actual Time
Civil Twilight
Nautical Twilight
Astronomical Twilight
Moon
Length of Visible Light
Length of Day
Tomorrow will be .
, % of the Moon is Illuminated

Today's Extremes

Country Highs Country Lows

Community

WunderPhotos

Upload Photos

1,927,538 photos uploaded!

WunderBlog® & News

Nearby

Air Quality

  Air Quality AQ Index Pollutant
Not available.

Snow Depth

Station Depth Elevation

Earthquake Activity

City Distance Mag. Time & Date
Minimum magnitude displayed is 2.5.

Coastal Water Temperatures

Place Temperature

Stations

Nearby Weather Stations

Station Location Temp. Windchill Dew Point Humidity Wind Precip. Elev Updated Type